^^
Station Historical Data
Daily Summary for June 16, 2017 Units:  Metric    English   Both
« Previous Day
Next Day »
Daily Weekly Monthly Yearly Custom
  High: Low: Average:
Temperature: 23.7 °C 4.2 °C 14.9 °C
Dew Point: 0.8 °C -3.6 °C -1.2 °C
Humidity: 59% 21% 35%
Wind Speed: 22.7km/h 0km/h 4.5km/h
Wind Gust: 29km/h - -
Wind- - South
Pressure: 1022.6 hPa 1016.8 hPa -
Precipitation: 0 mm    
Historical Graphs
 
 
Tabular Data for June 16, 2017
Time Temperature Dew Point Pressure Wind Wind Speed Wind Gust Humidity Rainfall Rate (Hourly) solar Conditions
05:28 4.4 °C -3.6 °C 1021.6 hPa Calm     56% 0 mm 0.0 W/m2
05:33 4.2 °C -3.6 °C 1021.9 hPa Calm     57% 0 mm 0.0 W/m2
05:38 4.2 °C -3.3 °C 1021.9 hPa Calm     58% 0 mm 0.0 W/m2
05:49 4.5 °C -2.8 °C 1021.9 hPa SSW 3.2 km/h 9.7 km/h 59% 0 mm 0.0 W/m2
05:58 4.9 °C -2.9 °C 1022.2 hPa SSW 3.2 km/h 8 km/h 57% 0 mm 0.0 W/m2
06:03 5.1 °C -2.7 °C 1021.9 hPa SSW 6.4 km/h 11.3 km/h 57% 0 mm 0.0 W/m2
06:08 5.3 °C -2.5 °C 1021.6 hPa SSW 4.7 km/h 11.3 km/h 57% 0 mm 0.0 W/m2
06:14 5.5 °C -2.8 °C 1021.2 hPa SSW 11.1 km/h 12.9 km/h 55% 0 mm 0.0 W/m2
06:19 5.6 °C -2.7 °C 1021.2 hPa South 6.4 km/h 11.3 km/h 55% 0 mm 0.0 W/m2
06:28 5.9 °C -2.5 °C 1021.2 hPa South 6.4 km/h 16.1 km/h 55% 0 mm 0.0 W/m2
06:39 5.8 °C -2.5 °C 1021.2 hPa SSE 9.7 km/h 12.9 km/h 55% 0 mm 5.0 W/m2
06:44 5.6 °C -2.5 °C 1021.2 hPa SSE 6.4 km/h 11.3 km/h 56% 0 mm 7.0 W/m2
06:50 5.7 °C -2.2 °C 1021.6 hPa SSE 4.7 km/h 9.7 km/h 57% 0 mm 9.0 W/m2
07:00 6 °C -1.9 °C 1021.9 hPa Calm     57% 0 mm 12.0 W/m2
07:11 6.1 °C -1.5 °C 1021.9 hPa Calm     58% 0 mm 14.0 W/m2
07:39 8.6 °C -0.7 °C 1021.9 hPa Calm   6.4 km/h 52% 0 mm 109.0 W/m2
08:24 10.9 °C -0.9 °C 1022.2 hPa ESE 1.4 km/h 17.7 km/h 44% 0 mm 265.0 W/m2
08:33 11.3 °C -0.8 °C 1022.2 hPa East 22.7 km/h 22.7 km/h 43% 0 mm 292.0 W/m2
08:43 11.7 °C -0.8 °C 1022.2 hPa ENE 4.7 km/h 20.9 km/h 42% 0 mm 318.0 W/m2
09:10 12.4 °C -0.5 °C 1022.6 hPa ENE 7.9 km/h 14.5 km/h 41% 0 mm 381.0 W/m2
09:25 13.1 °C -0.2 °C 1022.6 hPa ENE 3.2 km/h 19.3 km/h 40% 0 mm 417.0 W/m2
09:40 13.5 °C -0.2 °C 1022.2 hPa NE 11.1 km/h 19.3 km/h 39% 0 mm 448.0 W/m2
09:54 13.9 °C 0.2 °C 1022.2 hPa NE 7.9 km/h 17.7 km/h 39% 0 mm 476.0 W/m2
10:02 14.4 °C -0.1 °C 1022.6 hPa NE 4.7 km/h 17.7 km/h 37% 0 mm 496.0 W/m2
10:08 14.5 °C 0 °C 1022.6 hPa NE 7.9 km/h 14.5 km/h 37% 0 mm 506.0 W/m2
10:19 15 °C 0 °C 1022.6 hPa NE 4.7 km/h 9.7 km/h 36% 0 mm 520.0 W/m2
10:27 15.6 °C 0.2 °C 1022.6 hPa NE 9.7 km/h 16.1 km/h 35% 0 mm 533.0 W/m2
10:32 15.8 °C 0.4 °C 1022.6 hPa NE 6.4 km/h 12.9 km/h 35% 0 mm 536.0 W/m2
10:38 15.9 °C 0.1 °C 1022.6 hPa NE 6.4 km/h 12.9 km/h 34% 0 mm 545.0 W/m2
11:04 17.1 °C -0.2 °C 1021.9 hPa NE 16.3 km/h 24.1 km/h 31% 0 mm 568.0 W/m2
11:15 17.3 °C 0 °C 1021.6 hPa NNE 7.9 km/h 24.1 km/h 31% 0 mm 575.0 W/m2
11:24 18 °C 0.2 °C 1021.6 hPa NNE 11.1 km/h 19.3 km/h 30% 0 mm 580.0 W/m2
11:45 18.8 °C 0.4 °C 1020.9 hPa NNE 20.9 km/h 27.4 km/h 29% 0 mm 585.0 W/m2
11:54 18.8 °C 0.4 °C 1020.5 hPa North 9.7 km/h 17.7 km/h 29% 0 mm 585.0 W/m2
12:03 19.2 °C 0.7 °C 1020.2 hPa North 17.7 km/h 24.1 km/h 29% 0 mm 584.0 W/m2
12:30 19.8 °C 0.8 °C 1019.5 hPa North 7.9 km/h 27.4 km/h 28% 0 mm 575.0 W/m2
12:38 20 °C 0.4 °C 1019.2 hPa North 22.7 km/h 22.7 km/h 27% 0 mm 570.0 W/m2
12:48 20.4 °C 0.2 °C 1019.2 hPa North 7.9 km/h 20.9 km/h 26% 0 mm 561.0 W/m2
12:54 20.4 °C 0.8 °C 1018.8 hPa North 11.1 km/h 20.9 km/h 27% 0 mm 555.0 W/m2
13:04 21 °C 0.2 °C 1018.8 hPa North 14.3 km/h 22.5 km/h 25% 0 mm 545.0 W/m2
13:16 21 °C 0.2 °C 1018.8 hPa North 6.4 km/h 22.5 km/h 25% 0 mm 533.0 W/m2
13:30 21.5 °C 0.6 °C 1018.5 hPa North 9.7 km/h 19.3 km/h 25% 0 mm 512.0 W/m2
13:56 21.9 °C 0.4 °C 1017.8 hPa North 9.7 km/h 14.5 km/h 24% 0 mm 469.0 W/m2
14:11 22.2 °C 0.7 °C 1017.8 hPa North 9.7 km/h 20.9 km/h 24% 0 mm 439.0 W/m2
14:19 22.4 °C 0.2 °C 1017.8 hPa North 20.9 km/h 20.9 km/h 23% 0 mm 417.0 W/m2
14:27 22.8 °C 0 °C 1017.5 hPa North 3.2 km/h 22.5 km/h 22% 0 mm 394.0 W/m2
14:33 22.8 °C 0 °C 1017.5 hPa North 19.5 km/h 22.5 km/h 22% 0 mm 383.0 W/m2
14:38 22.9 °C 0.1 °C 1017.5 hPa North 13 km/h 19.3 km/h 22% 0 mm 371.0 W/m2
14:44 23 °C 0.1 °C 1017.2 hPa North 7.9 km/h 19.3 km/h 22% 0 mm 359.0 W/m2
14:55 23.2 °C -0.3 °C 1017.2 hPa North 14.3 km/h 20.9 km/h 21% 0 mm 334.0 W/m2
15:06 23.4 °C -0.2 °C 1017.2 hPa North 11.1 km/h 29 km/h 21% 0 mm 308.0 W/m2
15:15 23.2 °C -0.3 °C 1017.2 hPa North 17.7 km/h 19.3 km/h 21% 0 mm 281.0 W/m2
15:25 23.4 °C -0.2 °C 1017.2 hPa North 11.1 km/h 22.5 km/h 21% 0 mm 253.0 W/m2
15:33 23.4 °C -0.2 °C 1017.2 hPa North 11.1 km/h 20.9 km/h 21% 0 mm 223.0 W/m2
15:38 23.5 °C -0.1 °C 1017.2 hPa Calm   17.7 km/h 21% 0 mm 204.0 W/m2
15:47 23.7 °C 0.1 °C 1017.2 hPa North 17.7 km/h 17.7 km/h 21% 0 mm 169.0 W/m2
15:52 23.7 °C 0.1 °C 1017.2 hPa North 7.9 km/h 14.5 km/h 21% 0 mm 153.0 W/m2
16:02 23.6 °C 0 °C 1017.2 hPa North 11.1 km/h 17.7 km/h 21% 0 mm 118.0 W/m2
16:07 23.6 °C 0 °C 1017.2 hPa Calm   11.3 km/h 21% 0 mm 102.0 W/m2
16:13 23.6 °C 0 °C 1016.8 hPa Calm     21% 0 mm 83.0 W/m2
16:22 23.6 °C 0 °C 1016.8 hPa Calm     21% 0 mm 56.0 W/m2
16:28 23.5 °C -0.1 °C 1016.8 hPa Calm     21% 0 mm 44.0 W/m2
16:38 23.4 °C -0.2 °C 1016.8 hPa Calm     21% 0 mm 14.0 W/m2
16:43 23.1 °C -0.4 °C 1016.8 hPa Calm     21% 0 mm 12.0 W/m2
16:51 22.8 °C -0.7 °C 1016.8 hPa Calm     21% 0 mm 11.0 W/m2
17:04 22.2 °C -0.5 °C 1016.8 hPa Calm     22% 0 mm 5.0 W/m2
17:21 20.7 °C -0.6 °C 1016.8 hPa Calm     24% 0 mm 0.0 W/m2
17:37 19.2 °C -1.3 °C 1016.8 hPa Calm     25% 0 mm 0.0 W/m2
17:53 18.3 °C -1 °C 1017.2 hPa Calm     27% 0 mm 0.0 W/m2
18:07 17.5 °C -1.2 °C 1017.5 hPa Calm     28% 0 mm 0.0 W/m2
18:14 17.2 °C -1.5 °C 1017.2 hPa Calm     28% 0 mm 0.0 W/m2
18:25 16.7 °C -1.4 °C 1017.5 hPa Calm     29% 0 mm 0.0 W/m2
18:34 16.3 °C -1.8 °C 1017.5 hPa Calm     29% 0 mm 0.0 W/m2
18:44 16.4 °C -1.7 °C 1017.8 hPa Calm     29% 0 mm 0.0 W/m2
19:03 16.2 °C -1.4 °C 1018.2 hPa Calm     30% 0 mm 0.0 W/m2
19:08 15.9 °C -1.7 °C 1018.2 hPa Calm     30% 0 mm 0.0 W/m2
19:19 15.3 °C -1.7 °C 1018.2 hPa Calm     31% 0 mm 0.0 W/m2
19:25 15.1 °C -1.9 °C 1018.2 hPa Calm     31% 0 mm 0.0 W/m2
19:50 14.1 °C -1.9 °C 1018.2 hPa Calm     33% 0 mm 0.0 W/m2
20:06 13.6 °C -2 °C 1018.2 hPa Calm     34% 0 mm 0.0 W/m2
20:22 13 °C -2.5 °C 1018.5 hPa Calm     34% 0 mm 0.0 W/m2
20:36 13.4 °C -2.2 °C 1018.5 hPa Calm     34% 0 mm 0.0 W/m2
20:51 12.9 °C -2.2 °C 1018.2 hPa Calm     35% 0 mm 0.0 W/m2
21:05 12.7 °C -2 °C 1018.2 hPa Calm     36% 0 mm 0.0 W/m2
21:14 12.3 °C -2.4 °C 1018.5 hPa Calm     36% 0 mm 0.0 W/m2
21:22 11.9 °C -2.7 °C 1018.2 hPa Calm     36% 0 mm 0.0 W/m2
21:27 11.6 °C -2.6 °C 1018.5 hPa Calm     37% 0 mm 0.0 W/m2
21:32 11.5 °C -2.7 °C 1018.5 hPa Calm     37% 0 mm 0.0 W/m2
21:37 11.4 °C -2.4 °C 1018.5 hPa Calm     38% 0 mm 0.0 W/m2
21:42 11.4 °C -2.4 °C 1018.5 hPa Calm     38% 0 mm 0.0 W/m2
21:48 11.4 °C -2.4 °C 1018.5 hPa Calm     38% 0 mm 0.0 W/m2
21:53 11.4 °C -2.4 °C 1018.2 hPa Calm     38% 0 mm 0.0 W/m2
21:59 11.3 °C -2.5 °C 1018.2 hPa Calm     38% 0 mm 0.0 W/m2
22:09 11.5 °C -2.3 °C 1018.2 hPa Calm     38% 0 mm 0.0 W/m2
22:14 11.5 °C -2.3 °C 1018.2 hPa Calm     38% 0 mm 0.0 W/m2
22:24 11.5 °C -2 °C 1018.2 hPa Calm     39% 0 mm 0.0 W/m2
22:29 11.9 °C -1.6 °C 1018.2 hPa Calm     39% 0 mm 0.0 W/m2
22:34 12.3 °C -1.6 °C 1018.2 hPa Calm     38% 0 mm 0.0 W/m2
22:40 12.5 °C -1.8 °C 1018.2 hPa Calm     37% 0 mm 0.0 W/m2
22:45 12.3 °C -2.4 °C 1018.2 hPa Calm     36% 0 mm 0.0 W/m2
22:50 12 °C -2.2 °C 1018.2 hPa Calm     37% 0 mm 0.0 W/m2
22:55 11.7 °C -2.5 °C 1018.2 hPa Calm     37% 0 mm 0.0 W/m2
23:00 11.4 °C -2.4 °C 1018.2 hPa Calm     38% 0 mm 0.0 W/m2
23:06 11.2 °C -2.6 °C 1018.2 hPa Calm     38% 0 mm 0.0 W/m2
23:11 11 °C -2.4 °C 1018.2 hPa Calm     39% 0 mm 0.0 W/m2
23:16 11 °C -2.4 °C 1018.2 hPa Calm     39% 0 mm 0.0 W/m2
23:21 11 °C -2.4 °C 1018.2 hPa Calm     39% 0 mm 0.0 W/m2
23:26 10.9 °C -2.5 °C 1018.2 hPa Calm     39% 0 mm 0.0 W/m2
23:32 10.8 °C -2.6 °C 1017.8 hPa Calm     39% 0 mm 0.0 W/m2
23:37 10.6 °C -2.8 °C 1018.2 hPa Calm     39% 0 mm 0.0 W/m2
23:42 10.5 °C -2.5 °C 1018.2 hPa Calm     40% 0 mm 0.0 W/m2
23:47 10.3 °C -2.7 °C 1018.2 hPa Calm     40% 0 mm 0.0 W/m2
23:52 10.1 °C -2.9 °C 1018.2 hPa Calm     40% 0 mm 0.0 W/m2
23:58 10.1 °C -2.6 °C 1018.2 hPa Calm     41% 0 mm 0.0 W/m2
Canyon Roadhouse, Fishriver Canyon, Namibia
Compliments of Weather Underground - 2.25 mb